Time;durP1;ratioP1;P1;durP2;ratioP2;P2;SDS_P1;SDS_P2;PMS_P1;PMS_P2;Temp;Humidity;BMP_temperature;BMP_pressure;BME280_temperature;BME280_humidity;BME280_pressure;Samples;Min_cycle;Max_cycle;Signal;HPM_P1;HPM_P2
2023/08/02 00:02:10;;;;;;;2.23;1.60;;;;;;;;;;4971929;28;20554;-70
2023/08/02 00:04:37;;;;;;;3.70;1.33;;;;;;;;;;4972475;28;20898;-70
2023/08/02 00:07:03;;;;;;;1.27;1.27;;;;;;;;;;4972506;28;20505;-70
2023/08/02 00:09:29;;;;;;;3.40;1.20;;;;;;;;;;4972245;28;20524;-70
2023/08/02 00:11:55;;;;;;;1.43;1.40;;;;;;;;;;4970728;28;20576;-70
2023/08/02 00:14:21;;;;;;;0.97;0.97;;;;;;;;;;4971855;28;20430;-70
2023/08/02 00:16:47;;;;;;;1.33;1.33;;;;;;;;;;4972057;28;20434;-70
2023/08/02 00:19:13;;;;;;;1.10;1.10;;;;;;;;;;4972561;28;20428;-69
2023/08/02 00:21:39;;;;;;;1.63;1.53;;;;;;;;;;4971669;28;20474;-70
2023/08/02 00:24:05;;;;;;;0.57;0.57;;;;;;;;;;4972258;28;20421;-70
2023/08/02 00:26:31;;;;;;;1.30;1.10;;;;;;;;;;4971637;28;20522;-70
2023/08/02 00:28:57;;;;;;;1.00;1.00;;;;;;;;;;4971675;28;20517;-70
2023/08/02 00:31:23;;;;;;;1.10;1.10;;;;;;;;;;4971700;28;20452;-70
2023/08/02 00:33:49;;;;;;;2.50;1.17;;;;;;;;;;4971639;28;20769;-71
2023/08/02 00:36:15;;;;;;;1.20;1.20;;;;;;;;;;4971864;28;20426;-70
2023/08/02 00:38:40;;;;;;;1.57;1.57;;;;;;;;;;4970509;28;20773;-70
2023/08/02 00:41:08;;;;;;;1.33;1.33;;;;;;;;;;4971976;28;20477;-70
2023/08/02 00:43:41;;;;;;;1.00;1.00;;;;;;;;;;4971413;28;20807;-69
2023/08/02 00:46:13;;;;;;;3.23;1.20;;;;;;;;;;4970178;28;20434;-71
2023/08/02 00:48:39;;;;;;;2.53;1.13;;;;;;;;;;4971682;28;20472;-70
2023/08/02 00:51:05;;;;;;;1.20;1.20;;;;;;;;;;4971775;28;20479;-70
2023/08/02 00:53:31;;;;;;;1.20;1.20;;;;;;;;;;4971431;28;20811;-70
2023/08/02 00:55:58;;;;;;;1.20;1.20;;;;;;;;;;4971414;28;20931;-70
2023/08/02 00:58:24;;;;;;;1.80;1.53;;;;;;;;;;4971664;28;20410;-70
2023/08/02 01:00:50;;;;;;;1.03;1.03;;;;;;;;;;4971200;28;20473;-70
2023/08/02 01:03:16;;;;;;;2.90;1.60;;;;;;;;;;4971482;28;20784;-70
2023/08/02 01:05:45;;;;;;;1.20;1.20;;;;;;;;;;4971402;28;20519;-70
2023/08/02 01:08:14;;;;;;;1.50;1.50;;;;;;;;;;4971727;28;20928;-69
2023/08/02 01:10:43;;;;;;;0.97;0.97;;;;;;;;;;4971418;28;20417;-70
2023/08/02 01:13:11;;;;;;;1.60;1.60;;;;;;;;;;4971178;28;20429;-70
2023/08/02 01:15:37;;;;;;;4.93;1.40;;;;;;;;;;4971126;28;20467;-70
2023/08/02 01:18:03;;;;;;;1.00;1.00;;;;;;;;;;4971037;28;20422;-71
2023/08/02 01:23:33;;;;;;;20.87;3.73;;;;;;;;;;4971198;28;20425;-70
2023/08/02 01:26:00;;;;;;;1.23;1.13;;;;;;;;;;4971547;28;20460;-70
2023/08/02 01:28:27;;;;;;;1.27;1.27;;;;;;;;;;4971287;28;20424;-70
2023/08/02 01:30:54;;;;;;;2.10;1.40;;;;;;;;;;4971224;28;20454;-71
2023/08/02 01:33:21;;;;;;;1.20;1.20;;;;;;;;;;4971142;28;20580;-70
2023/08/02 01:35:48;;;;;;;1.53;1.53;;;;;;;;;;4971119;28;20427;-70
2023/08/02 01:38:14;;;;;;;1.17;1.17;;;;;;;;;;4971190;28;20426;-70
2023/08/02 01:40:40;;;;;;;1.63;1.60;;;;;;;;;;4971332;28;20516;-71
2023/08/02 01:43:06;;;;;;;1.80;1.70;;;;;;;;;;4971162;28;20445;-70
2023/08/02 01:45:32;;;;;;;1.30;1.20;;;;;;;;;;4970867;28;21023;-70
2023/08/02 01:47:58;;;;;;;1.73;1.73;;;;;;;;;;4971317;28;20418;-70
2023/08/02 01:50:24;;;;;;;3.03;2.00;;;;;;;;;;4973826;28;20444;-70
2023/08/02 01:52:50;;;;;;;2.10;1.37;;;;;;;;;;4974131;28;20893;-71
2023/08/02 01:55:19;;;;;;;1.70;1.60;;;;;;;;;;4972396;28;20858;-71
2023/08/02 01:57:45;;;;;;;1.47;1.47;;;;;;;;;;4974427;28;20418;-70
2023/08/02 02:00:12;;;;;;;1.53;1.43;;;;;;;;;;4973839;28;20428;-70
2023/08/02 02:02:39;;;;;;;2.53;1.90;;;;;;;;;;4974029;28;20478;-71
2023/08/02 02:05:05;;;;;;;1.30;1.20;;;;;;;;;;4974095;28;20422;-70
2023/08/02 02:07:31;;;;;;;1.93;1.83;;;;;;;;;;4973755;28;20433;-70
2023/08/02 02:09:57;;;;;;;6.13;1.83;;;;;;;;;;4973706;28;20426;-71
2023/08/02 02:12:23;;;;;;;1.30;1.20;;;;;;;;;;4973701;28;20486;-71
2023/08/02 02:14:49;;;;;;;1.93;1.87;;;;;;;;;;4973646;28;20422;-70
2023/08/02 02:17:15;;;;;;;1.80;1.70;;;;;;;;;;4973947;28;20413;-70
2023/08/02 02:19:41;;;;;;;3.00;1.63;;;;;;;;;;4972427;28;21016;-70
2023/08/02 02:22:06;;;;;;;2.17;1.60;;;;;;;;;;4974107;28;20482;-70
2023/08/02 02:24:33;;;;;;;1.67;1.57;;;;;;;;;;4973653;28;20410;-70
2023/08/02 02:26:59;;;;;;;1.77;1.77;;;;;;;;;;4973760;28;20422;-70
2023/08/02 02:29:25;;;;;;;1.63;1.53;;;;;;;;;;4973499;28;20480;-70
2023/08/02 02:31:51;;;;;;;2.30;1.77;;;;;;;;;;4973440;28;20449;-70
2023/08/02 02:34:17;;;;;;;1.83;1.43;;;;;;;;;;4973366;28;20468;-71
2023/08/02 02:36:45;;;;;;;2.27;2.17;;;;;;;;;;4973313;28;20426;-70
2023/08/02 02:39:11;;;;;;;1.73;1.40;;;;;;;;;;4973944;28;20417;-71
2023/08/02 02:41:37;;;;;;;2.40;2.10;;;;;;;;;;4973241;28;20478;-71
2023/08/02 02:44:03;;;;;;;1.70;1.60;;;;;;;;;;4973615;28;20435;-70
2023/08/02 02:46:29;;;;;;;6.43;1.93;;;;;;;;;;4973373;28;20422;-70
2023/08/02 02:48:55;;;;;;;5.70;2.10;;;;;;;;;;4973318;28;20892;-71
2023/08/02 02:51:21;;;;;;;1.33;1.30;;;;;;;;;;4973753;28;20875;-70
2023/08/02 02:53:47;;;;;;;5.53;1.73;;;;;;;;;;4973327;28;20458;-70
2023/08/02 02:56:13;;;;;;;6.90;2.00;;;;;;;;;;4973105;28;20410;-70
2023/08/02 02:58:39;;;;;;;2.47;1.80;;;;;;;;;;4972859;28;20418;-70
2023/08/02 03:01:05;;;;;;;2.10;1.77;;;;;;;;;;4972148;28;20485;-70
2023/08/02 03:03:31;;;;;;;2.00;1.90;;;;;;;;;;4973100;28;20418;-70
2023/08/02 03:05:57;;;;;;;2.27;2.17;;;;;;;;;;4973198;28;20517;-70
2023/08/02 03:08:23;;;;;;;2.80;1.53;;;;;;;;;;4972854;28;20418;-71
2023/08/02 03:10:49;;;;;;;2.10;1.23;;;;;;;;;;4972837;28;20418;-70
2023/08/02 03:13:15;;;;;;;1.77;1.77;;;;;;;;;;4973159;28;20429;-70
2023/08/02 03:15:41;;;;;;;1.40;1.40;;;;;;;;;;4973768;28;20441;-70
2023/08/02 03:18:07;;;;;;;1.80;1.80;;;;;;;;;;4972695;28;20480;-70
2023/08/02 03:20:33;;;;;;;2.10;2.00;;;;;;;;;;4972584;28;20422;-70
2023/08/02 03:22:59;;;;;;;2.07;1.70;;;;;;;;;;4971385;28;20442;-70
2023/08/02 03:25:25;;;;;;;2.00;1.67;;;;;;;;;;4972699;28;20430;-70
2023/08/02 03:27:51;;;;;;;3.23;2.10;;;;;;;;;;4972832;28;20437;-71
2023/08/02 03:30:17;;;;;;;2.30;2.10;;;;;;;;;;4972558;28;20429;-70
2023/08/02 03:32:43;;;;;;;2.20;1.90;;;;;;;;;;4972455;28;20422;-71
2023/08/02 03:35:09;;;;;;;1.80;1.80;;;;;;;;;;4972723;28;20421;-71
2023/08/02 03:37:35;;;;;;;2.10;2.00;;;;;;;;;;4973034;28;20418;-71
2023/08/02 03:40:01;;;;;;;1.90;1.80;;;;;;;;;;4972648;28;20438;-70
2023/08/02 03:42:27;;;;;;;2.60;2.50;;;;;;;;;;4972928;28;20557;-71
2023/08/02 03:44:53;;;;;;;3.93;2.33;;;;;;;;;;4972711;28;20497;-70
2023/08/02 03:47:19;;;;;;;3.57;1.87;;;;;;;;;;4972350;28;20863;-70
2023/08/02 03:49:45;;;;;;;2.27;2.17;;;;;;;;;;4972498;28;20414;-70
2023/08/02 03:52:11;;;;;;;2.27;2.07;;;;;;;;;;4972273;28;20420;-71
2023/08/02 03:54:37;;;;;;;2.37;2.27;;;;;;;;;;4972112;28;20466;-70
2023/08/02 03:57:03;;;;;;;2.23;2.23;;;;;;;;;;4972193;28;20426;-71
2023/08/02 03:59:29;;;;;;;2.50;2.40;;;;;;;;;;4972176;28;20449;-71
2023/08/02 04:01:55;;;;;;;2.63;2.30;;;;;;;;;;4971965;28;20480;-70
2023/08/02 04:04:21;;;;;;;2.00;2.00;;;;;;;;;;4972091;28;20430;-70
2023/08/02 04:06:47;;;;;;;2.67;2.20;;;;;;;;;;4972124;28;20794;-71
2023/08/02 04:09:13;;;;;;;1.87;1.87;;;;;;;;;;4972168;28;20414;-71
2023/08/02 04:11:39;;;;;;;1.97;1.97;;;;;;;;;;4970407;28;20465;-70
2023/08/02 04:14:05;;;;;;;2.03;1.93;;;;;;;;;;4971872;28;20429;-70
2023/08/02 04:16:31;;;;;;;1.57;1.57;;;;;;;;;;4971828;28;20430;-70
2023/08/02 04:18:57;;;;;;;2.37;2.27;;;;;;;;;;4971936;28;20515;-71
2023/08/02 04:21:23;;;;;;;1.77;1.77;;;;;;;;;;4971797;28;20490;-71
2023/08/02 04:23:50;;;;;;;2.47;2.17;;;;;;;;;;4971773;28;20539;-71
2023/08/02 04:26:16;;;;;;;2.10;2.00;;;;;;;;;;4971586;28;20422;-70
2023/08/02 04:28:42;;;;;;;2.53;2.33;;;;;;;;;;4971602;28;20425;-70
2023/08/02 04:31:08;;;;;;;4.00;1.83;;;;;;;;;;4972000;28;20422;-71
2023/08/02 04:33:34;;;;;;;2.93;2.03;;;;;;;;;;4971446;28;20422;-70
2023/08/02 04:36:00;;;;;;;2.50;1.93;;;;;;;;;;4972189;28;20486;-70
2023/08/02 04:38:27;;;;;;;5.33;1.77;;;;;;;;;;4971660;28;20425;-71
2023/08/02 04:40:53;;;;;;;2.77;2.67;;;;;;;;;;4970242;28;20474;-70
2023/08/02 04:43:19;;;;;;;2.00;1.90;;;;;;;;;;4971506;28;20426;-70
2023/08/02 04:45:45;;;;;;;1.80;1.70;;;;;;;;;;4971789;28;20836;-70
2023/08/02 04:48:11;;;;;;;1.87;1.87;;;;;;;;;;4971790;28;20436;-70
2023/08/02 04:50:37;;;;;;;2.40;2.30;;;;;;;;;;4971404;28;20418;-70
2023/08/02 04:53:03;;;;;;;2.30;1.60;;;;;;;;;;4971432;28;20419;-71
2023/08/02 04:55:28;;;;;;;2.50;1.83;;;;;;;;;;4971053;28;20826;-71
2023/08/02 04:57:54;;;;;;;2.00;1.90;;;;;;;;;;4971392;28;20426;-71
2023/08/02 05:00:20;;;;;;;1.80;1.80;;;;;;;;;;4971546;28;20787;-71
2023/08/02 05:02:46;;;;;;;3.00;1.90;;;;;;;;;;4970730;28;21054;-73
2023/08/02 05:05:12;;;;;;;8.63;2.13;;;;;;;;;;4971414;28;20410;-69
2023/08/02 05:07:39;;;;;;;2.93;2.57;;;;;;;;;;4971149;28;20418;-69
2023/08/02 05:10:05;;;;;;;1.40;1.40;;;;;;;;;;4971055;28;20422;-71
2023/08/02 05:12:35;;;;;;;1.63;1.50;;;;;;;;;;4970998;28;20422;-71
2023/08/02 05:15:01;;;;;;;1.93;1.93;;;;;;;;;;4970945;28;20439;-70
2023/08/02 05:17:29;;;;;;;2.13;1.90;;;;;;;;;;4971184;28;20430;-70
2023/08/02 05:19:55;;;;;;;2.03;1.30;;;;;;;;;;4971753;28;20422;-71
2023/08/02 05:22:21;;;;;;;4.30;1.77;;;;;;;;;;4970842;28;20485;-70
2023/08/02 05:24:47;;;;;;;1.70;1.70;;;;;;;;;;4972658;28;20426;-70
2023/08/02 05:27:13;;;;;;;6.20;1.83;;;;;;;;;;4974647;28;20422;-71
2023/08/02 05:29:39;;;;;;;3.03;1.73;;;;;;;;;;4974306;28;20414;-69
2023/08/02 05:32:05;;;;;;;1.80;1.70;;;;;;;;;;4974326;28;20495;-69
2023/08/02 05:34:31;;;;;;;2.57;2.47;;;;;;;;;;4974159;28;20932;-70
2023/08/02 05:36:57;;;;;;;2.20;2.10;;;;;;;;;;4974174;28;20921;-70
2023/08/02 05:39:23;;;;;;;2.57;1.90;;;;;;;;;;4974358;28;20455;-69
2023/08/02 05:41:49;;;;;;;3.33;1.80;;;;;;;;;;4974426;28;20478;-70
2023/08/02 05:44:15;;;;;;;1.97;1.87;;;;;;;;;;4974074;28;20414;-70
2023/08/02 05:46:41;;;;;;;4.63;1.97;;;;;;;;;;4972745;28;20434;-69
2023/08/02 05:49:07;;;;;;;2.47;2.27;;;;;;;;;;4974016;28;20952;-69
2023/08/02 05:51:33;;;;;;;2.60;2.10;;;;;;;;;;4973769;28;20445;-69
2023/08/02 05:53:59;;;;;;;9.47;3.43;;;;;;;;;;4973620;28;20835;-70
2023/08/02 05:56:26;;;;;;;5.73;2.00;;;;;;;;;;4973699;28;20478;-70
2023/08/02 05:58:52;;;;;;;3.00;2.83;;;;;;;;;;4973997;28;20972;-70
2023/08/02 06:01:18;;;;;;;2.07;1.87;;;;;;;;;;4974101;28;20542;-70
2023/08/02 06:03:44;;;;;;;2.60;2.40;;;;;;;;;;4974354;28;20636;-69
2023/08/02 06:06:10;;;;;;;2.13;2.00;;;;;;;;;;4974041;28;20418;-69
2023/08/02 06:08:37;;;;;;;2.10;2.00;;;;;;;;;;4974694;28;20421;-70
2023/08/02 06:11:03;;;;;;;2.60;2.40;;;;;;;;;;4974053;28;20430;-69
2023/08/02 06:13:30;;;;;;;5.33;2.37;;;;;;;;;;4973689;28;20909;-70
2023/08/02 06:15:56;;;;;;;2.47;2.40;;;;;;;;;;4973841;28;20442;-70
2023/08/02 06:18:22;;;;;;;2.60;2.00;;;;;;;;;;4973731;28;20509;-70
2023/08/02 06:20:48;;;;;;;2.17;2.07;;;;;;;;;;4973521;28;20595;-70
2023/08/02 06:23:14;;;;;;;2.70;2.07;;;;;;;;;;4972302;28;20928;-70
2023/08/02 06:25:40;;;;;;;5.23;1.93;;;;;;;;;;4973547;28;20495;-70
2023/08/02 06:28:06;;;;;;;3.37;2.30;;;;;;;;;;4973816;28;20913;-70
2023/08/02 06:30:32;;;;;;;2.53;2.43;;;;;;;;;;4973756;28;20430;-70
2023/08/02 06:32:58;;;;;;;2.33;2.23;;;;;;;;;;4973722;28;20462;-70
2023/08/02 06:35:23;;;;;;;2.23;2.13;;;;;;;;;;4973305;28;20426;-70
2023/08/02 06:37:49;;;;;;;1.77;1.77;;;;;;;;;;4973319;28;20430;-70
2023/08/02 06:43:19;;;;;;;2.60;2.40;;;;;;;;;;4973419;28;20487;-70
2023/08/02 06:45:46;;;;;;;2.40;2.30;;;;;;;;;;4973245;28;20897;-70
2023/08/02 06:48:12;;;;;;;2.07;1.97;;;;;;;;;;4973478;28;20901;-70
2023/08/02 06:53:41;;;;;;;1.53;1.43;;;;;;;;;;4972928;28;20457;-70
2023/08/02 06:56:11;;;;;;;1.93;1.83;;;;;;;;;;4973138;28;20418;-70
2023/08/02 06:58:37;;;;;;;1.90;1.90;;;;;;;;;;4973078;28;20433;-70
2023/08/02 07:01:10;;;;;;;1.70;1.70;;;;;;;;;;4972891;28;20474;-69
2023/08/02 07:03:36;;;;;;;1.67;1.60;;;;;;;;;;4973482;28;20427;-70
2023/08/02 07:06:07;;;;;;;1.60;1.60;;;;;;;;;;4973064;28;20878;-70
2023/08/02 07:08:33;;;;;;;1.60;1.60;;;;;;;;;;4973459;28;20403;-70
2023/08/02 07:10:59;;;;;;;7.00;2.00;;;;;;;;;;4972887;28;20558;-70
2023/08/02 07:13:25;;;;;;;2.43;2.33;;;;;;;;;;4973120;28;20501;-70
2023/08/02 07:15:51;;;;;;;2.00;1.90;;;;;;;;;;4972771;28;20421;-70
2023/08/02 07:18:17;;;;;;;1.90;1.80;;;;;;;;;;4972630;28;20478;-70
2023/08/02 07:20:43;;;;;;;2.17;2.07;;;;;;;;;;4972583;28;20419;-70
2023/08/02 07:23:09;;;;;;;2.47;2.30;;;;;;;;;;4972732;28;20422;-71
2023/08/02 07:25:35;;;;;;;1.70;1.63;;;;;;;;;;4972778;28;20446;-70
2023/08/02 07:28:01;;;;;;;1.87;1.87;;;;;;;;;;4972793;28;20435;-70
2023/08/02 07:33:30;;;;;;;2.17;2.13;;;;;;;;;;4972587;28;20453;-70
2023/08/02 07:35:56;;;;;;;2.30;2.20;;;;;;;;;;4972772;28;20414;-70
2023/08/02 07:38:22;;;;;;;2.20;2.20;;;;;;;;;;4972517;28;20418;-70
2023/08/02 07:40:48;;;;;;;14.53;2.10;;;;;;;;;;4972288;28;20426;-69
2023/08/02 07:43:14;;;;;;;2.63;2.43;;;;;;;;;;4972930;28;21103;-70
2023/08/02 07:45:40;;;;;;;2.10;2.00;;;;;;;;;;4972636;28;20437;-70
2023/08/02 07:48:07;;;;;;;2.13;2.03;;;;;;;;;;4972041;28;20453;-70
2023/08/02 07:50:34;;;;;;;21.00;2.43;;;;;;;;;;4972156;28;20424;-69
2023/08/02 07:53:00;;;;;;;3.07;2.47;;;;;;;;;;4972746;28;20426;-70
2023/08/02 08:17:41;;;;;;;1.87;1.87;;;;;;;;;;4901040;28;20982;-67
2023/08/02 08:20:08;;;;;;;2.70;2.57;;;;;;;;;;4902097;28;20445;-66
2023/08/02 08:22:34;;;;;;;2.27;2.17;;;;;;;;;;4906202;28;20495;-66
2023/08/02 08:25:00;;;;;;;2.33;2.33;;;;;;;;;;4892734;28;20426;-67
2023/08/02 08:27:26;;;;;;;3.70;3.40;;;;;;;;;;4895009;28;20461;-66
2023/08/02 08:29:52;;;;;;;2.70;2.50;;;;;;;;;;4904517;28;20520;-66
2023/08/02 08:32:18;;;;;;;9.30;3.50;;;;;;;;;;4897496;28;20422;-66
2023/08/02 08:34:44;;;;;;;3.93;2.53;;;;;;;;;;4903791;28;20891;-66
2023/08/02 08:37:10;;;;;;;5.23;3.30;;;;;;;;;;4909920;28;20563;-66
2023/08/02 08:39:37;;;;;;;2.47;2.37;;;;;;;;;;4909120;28;20518;-68
2023/08/02 08:42:09;;;;;;;2.87;2.77;;;;;;;;;;4908920;29;20596;-66
2023/08/02 08:44:38;;;;;;;2.70;2.50;;;;;;;;;;4910334;28;20432;-66
2023/08/02 08:47:06;;;;;;;3.93;3.00;;;;;;;;;;4910200;28;20451;-66
2023/08/02 08:49:32;;;;;;;3.37;2.40;;;;;;;;;;4903344;28;20434;-67
2023/08/02 08:51:58;;;;;;;2.83;2.73;;;;;;;;;;4891558;28;20477;-67
2023/08/02 08:54:25;;;;;;;4.07;3.00;;;;;;;;;;4908935;28;20441;-66
2023/08/02 08:56:51;;;;;;;2.07;1.97;;;;;;;;;;4910669;29;20428;-66
2023/08/02 08:59:18;;;;;;;4.53;2.90;;;;;;;;;;4911747;28;20511;-67
2023/08/02 09:01:44;;;;;;;4.77;2.10;;;;;;;;;;4913628;28;20583;-67
2023/08/02 09:04:10;;;;;;;8.87;2.43;;;;;;;;;;4912850;29;20440;-66
2023/08/02 09:06:36;;;;;;;2.50;2.40;;;;;;;;;;4914111;28;20479;-66
2023/08/02 09:09:03;;;;;;;2.30;2.30;;;;;;;;;;4908017;28;20896;-66
2023/08/02 09:11:29;;;;;;;3.23;3.03;;;;;;;;;;4913643;28;20199;-66
2023/08/02 09:14:14;;;;;;;7.13;2.67;;;;;;;;;;4912243;28;21011;-66
2023/08/02 09:16:57;;;;;;;4.20;4.00;;;;;;;;;;4911905;28;20468;-68
2023/08/02 09:19:24;;;;;;;3.20;3.00;;;;;;;;;;4910665;28;20810;-69
2023/08/02 09:22:11;;;;;;;4.33;3.17;;;;;;;;;;4896190;28;20648;-67
2023/08/02 09:24:38;;;;;;;6.00;3.00;;;;;;;;;;4904683;29;20810;-67
2023/08/02 09:27:11;;;;;;;2.30;2.20;;;;;;;;;;4900209;28;20532;-67
2023/08/02 09:29:46;;;;;;;2.50;2.40;;;;;;;;;;4912200;28;20944;-66
2023/08/02 09:32:12;;;;;;;3.27;3.00;;;;;;;;;;4910667;28;20439;-66
2023/08/02 09:34:43;;;;;;;5.67;2.47;;;;;;;;;;4909353;28;20988;-67
2023/08/02 09:37:11;;;;;;;2.97;2.83;;;;;;;;;;4911827;28;20803;-67
2023/08/02 09:39:37;;;;;;;2.83;2.73;;;;;;;;;;4910889;28;20447;-66
2023/08/02 09:42:11;;;;;;;2.73;2.63;;;;;;;;;;4908239;29;20496;-67
2023/08/02 09:44:37;;;;;;;3.43;3.23;;;;;;;;;;4914061;28;20963;-67
2023/08/02 09:47:21;;;;;;;2.50;2.50;;;;;;;;;;4911849;28;20534;-66
2023/08/02 09:50:02;;;;;;;4.83;3.40;;;;;;;;;;4911734;28;20591;-66
2023/08/02 09:52:28;;;;;;;3.23;3.10;;;;;;;;;;4910742;29;20444;-66
2023/08/02 09:54:54;;;;;;;2.60;2.50;;;;;;;;;;4915018;28;20439;-66
2023/08/02 09:57:25;;;;;;;3.10;2.90;;;;;;;;;;4911860;29;20432;-66
2023/08/02 09:59:52;;;;;;;3.40;3.17;;;;;;;;;;4910402;28;20428;-66
2023/08/02 10:02:19;;;;;;;4.60;4.30;;;;;;;;;;4910290;28;20578;-67
2023/08/02 10:04:47;;;;;;;5.27;4.00;;;;;;;;;;4911728;28;20488;-67
2023/08/02 10:07:13;;;;;;;3.67;3.37;;;;;;;;;;4912045;28;20951;-66
2023/08/02 10:09:40;;;;;;;4.38;3.50;;;;;;;;;;4909901;28;20446;-66
2023/08/02 10:12:08;;;;;;;4.67;3.87;;;;;;;;;;4896437;28;20197;-67
2023/08/02 10:14:34;;;;;;;3.23;2.80;;;;;;;;;;4910664;28;20464;-67
2023/08/02 10:17:01;;;;;;;12.80;9.90;;;;;;;;;;4876066;28;1046703;-66
2023/08/02 10:19:28;;;;;;;3.77;3.47;;;;;;;;;;4912446;29;20200;-66
2023/08/02 10:21:55;;;;;;;3.50;3.40;;;;;;;;;;4912858;28;20854;-66
2023/08/02 10:24:21;;;;;;;3.60;3.50;;;;;;;;;;4912663;28;20425;-66
2023/08/02 10:26:47;;;;;;;4.10;3.90;;;;;;;;;;4911854;28;20524;-66
2023/08/02 10:29:13;;;;;;;3.13;3.03;;;;;;;;;;4908222;28;20437;-66
2023/08/02 10:31:40;;;;;;;4.23;3.93;;;;;;;;;;4911954;28;20579;-66
2023/08/02 10:34:24;;;;;;;3.40;3.10;;;;;;;;;;4912796;28;20424;-66
2023/08/02 10:36:56;;;;;;;2.90;2.80;;;;;;;;;;4906224;28;20429;-66
2023/08/02 10:39:41;;;;;;;3.43;3.23;;;;;;;;;;4913068;29;20475;-66
2023/08/02 10:42:07;;;;;;;2.93;2.73;;;;;;;;;;4912496;28;20559;-66
2023/08/02 10:44:34;;;;;;;3.07;2.97;;;;;;;;;;4910789;28;20432;-66
2023/08/02 10:47:23;;;;;;;2.53;2.33;;;;;;;;;;4911981;28;20475;-66
2023/08/02 10:49:49;;;;;;;3.10;3.10;;;;;;;;;;4907156;28;20445;-66
2023/08/02 10:52:25;;;;;;;3.03;2.93;;;;;;;;;;4911297;28;20940;-68
2023/08/02 10:55:04;;;;;;;3.30;3.10;;;;;;;;;;4912159;28;20487;-66
2023/08/02 10:57:30;;;;;;;3.37;2.83;;;;;;;;;;4912554;28;20432;-66
2023/08/02 10:59:56;;;;;;;3.13;3.00;;;;;;;;;;4912099;28;20428;-66
2023/08/02 11:02:25;;;;;;;3.10;3.00;;;;;;;;;;4909332;28;20496;-66
2023/08/02 11:04:51;;;;;;;3.00;2.90;;;;;;;;;;4910850;28;20444;-67
2023/08/02 11:07:18;;;;;;;3.80;3.00;;;;;;;;;;4911971;28;20440;-67
2023/08/02 11:09:45;;;;;;;2.70;2.50;;;;;;;;;;4901528;28;20700;-67
2023/08/02 11:12:12;;;;;;;2.67;2.67;;;;;;;;;;4908286;28;20452;-66
2023/08/02 11:14:42;;;;;;;4.70;3.00;;;;;;;;;;4910334;28;20437;-67
2023/08/02 11:17:08;;;;;;;3.90;2.73;;;;;;;;;;4908953;28;20508;-66
2023/08/02 11:19:35;;;;;;;3.20;2.83;;;;;;;;;;4899895;28;20694;-66
2023/08/02 11:22:01;;;;;;;3.57;3.27;;;;;;;;;;4909692;28;20488;-66
2023/08/02 11:24:27;;;;;;;6.97;3.50;;;;;;;;;;4911635;28;20420;-66
2023/08/02 11:26:57;;;;;;;3.93;3.40;;;;;;;;;;4903419;28;20447;-66
2023/08/02 11:29:23;;;;;;;2.60;2.40;;;;;;;;;;4909184;28;20473;-66
2023/08/02 11:31:51;;;;;;;3.33;2.40;;;;;;;;;;4909877;28;20467;-66
2023/08/02 11:34:20;;;;;;;7.73;7.30;;;;;;;;;;4905513;28;20436;-66
2023/08/02 11:36:46;;;;;;;2.63;2.53;;;;;;;;;;4904748;29;20987;-67
2023/08/02 11:39:16;;;;;;;2.53;2.00;;;;;;;;;;4905621;29;20536;-67
2023/08/02 11:41:42;;;;;;;1.67;1.57;;;;;;;;;;4905693;29;20477;-66
2023/08/02 11:44:18;;;;;;;2.70;2.20;;;;;;;;;;4908067;28;20440;-66
2023/08/02 11:46:45;;;;;;;2.67;2.47;;;;;;;;;;4906709;28;20551;-66
2023/08/02 11:49:11;;;;;;;3.00;2.80;;;;;;;;;;4904454;28;20441;-66
2023/08/02 11:51:41;;;;;;;6.13;1.90;;;;;;;;;;4907882;28;20452;-67
2023/08/02 11:54:07;;;;;;;5.30;4.27;;;;;;;;;;4907760;28;20483;-67
2023/08/02 11:56:34;;;;;;;2.03;1.93;;;;;;;;;;4904781;28;21004;-67
2023/08/02 11:59:00;;;;;;;4.63;3.27;;;;;;;;;;4904561;28;20464;-67
2023/08/02 12:01:26;;;;;;;2.93;2.70;;;;;;;;;;4907535;28;20500;-66
2023/08/02 12:03:53;;;;;;;1.90;1.80;;;;;;;;;;4909200;28;20436;-66
2023/08/02 12:06:19;;;;;;;2.23;1.93;;;;;;;;;;4911360;29;20447;-66
2023/08/02 12:09:12;;;;;;;4.00;3.70;;;;;;;;;;4910332;28;20449;-66
2023/08/02 12:11:37;;;;;;;2.33;2.13;;;;;;;;;;4915399;28;20436;-66
2023/08/02 12:14:06;;;;;;;3.13;1.47;;;;;;;;;;4911106;28;20431;-66
2023/08/02 12:16:41;;;;;;;1.43;1.43;;;;;;;;;;4910488;28;20495;-66
2023/08/02 12:19:08;;;;;;;4.10;2.00;;;;;;;;;;4911530;28;20531;-66
2023/08/02 12:21:34;;;;;;;1.90;1.70;;;;;;;;;;4910948;28;20538;-66
2023/08/02 12:24:10;;;;;;;1.60;1.60;;;;;;;;;;4910887;28;20464;-66
2023/08/02 12:26:36;;;;;;;2.93;2.13;;;;;;;;;;4905287;28;20430;-67
2023/08/02 12:29:03;;;;;;;2.03;1.93;;;;;;;;;;4910909;28;20948;-66
2023/08/02 12:31:40;;;;;;;1.53;1.50;;;;;;;;;;4910687;28;20900;-66
2023/08/02 12:34:06;;;;;;;3.47;1.60;;;;;;;;;;4905591;29;20465;-66
2023/08/02 12:36:35;;;;;;;1.23;1.23;;;;;;;;;;4908635;28;20488;-67
2023/08/02 12:39:01;;;;;;;1.97;1.87;;;;;;;;;;4907650;28;20181;-67
2023/08/02 12:41:30;;;;;;;6.93;2.73;;;;;;;;;;4906269;28;20479;-66
2023/08/02 12:43:56;;;;;;;4.10;1.80;;;;;;;;;;4909573;29;20479;-67
2023/08/02 12:46:22;;;;;;;2.20;1.50;;;;;;;;;;4894263;28;20425;-66
2023/08/02 12:48:49;;;;;;;1.57;1.57;;;;;;;;;;4896147;29;20457;-66
2023/08/02 12:51:16;;;;;;;1.43;1.43;;;;;;;;;;4904499;29;20473;-66
2023/08/02 12:53:42;;;;;;;1.80;1.70;;;;;;;;;;4898065;28;20450;-66
2023/08/02 12:56:08;;;;;;;3.07;1.43;;;;;;;;;;4904564;29;20476;-66
2023/08/02 12:58:34;;;;;;;1.73;1.73;;;;;;;;;;4893811;28;20500;-66
2023/08/02 13:01:00;;;;;;;1.57;1.37;;;;;;;;;;4899357;28;20437;-66
2023/08/02 13:03:26;;;;;;;1.30;1.30;;;;;;;;;;4911959;28;20490;-66
2023/08/02 13:05:52;;;;;;;3.73;2.03;;;;;;;;;;4910455;28;20428;-66
2023/08/02 13:08:18;;;;;;;1.47;1.47;;;;;;;;;;4909622;28;20440;-66
2023/08/02 13:10:44;;;;;;;2.20;2.00;;;;;;;;;;4910032;29;20468;-67
2023/08/02 13:13:10;;;;;;;2.00;2.00;;;;;;;;;;4909157;28;20483;-66
2023/08/02 13:15:36;;;;;;;1.47;1.40;;;;;;;;;;4909423;28;20440;-66
2023/08/02 13:18:02;;;;;;;1.40;1.40;;;;;;;;;;4909142;28;20481;-66
2023/08/02 13:20:28;;;;;;;3.40;1.33;;;;;;;;;;4895237;29;20508;-67
2023/08/02 13:22:55;;;;;;;1.70;1.60;;;;;;;;;;4911224;28;20484;-66
2023/08/02 13:25:21;;;;;;;7.83;1.40;;;;;;;;;;4909905;28;20494;-67
2023/08/02 13:27:46;;;;;;;1.70;1.70;;;;;;;;;;4900342;28;20437;-66
2023/08/02 13:30:12;;;;;;;5.87;1.40;;;;;;;;;;4890153;29;20433;-66
2023/08/02 13:32:38;;;;;;;5.90;1.83;;;;;;;;;;4903752;28;20442;-66
2023/08/02 13:35:05;;;;;;;1.30;1.30;;;;;;;;;;4896308;28;20424;-66
2023/08/02 13:37:32;;;;;;;1.37;1.37;;;;;;;;;;4905037;28;20826;-66
2023/08/02 13:39:58;;;;;;;1.40;1.40;;;;;;;;;;4904774;28;20510;-66
2023/08/02 13:42:24;;;;;;;2.63;1.33;;;;;;;;;;4909819;28;21762;-66
2023/08/02 13:44:54;;;;;;;1.90;1.90;;;;;;;;;;4910175;28;20436;-66
2023/08/02 13:47:20;;;;;;;1.40;1.40;;;;;;;;;;4905315;28;20472;-66
2023/08/02 13:49:46;;;;;;;1.50;1.50;;;;;;;;;;4893321;28;20433;-66
2023/08/02 13:52:12;;;;;;;3.00;2.80;;;;;;;;;;4894835;29;20433;-66
2023/08/02 13:54:39;;;;;;;2.40;1.67;;;;;;;;;;4892774;28;20178;-66
2023/08/02 13:57:05;;;;;;;1.83;1.77;;;;;;;;;;4896438;28;20465;-66
2023/08/02 13:59:31;;;;;;;1.80;1.80;;;;;;;;;;4913066;28;20499;-66
2023/08/02 14:01:57;;;;;;;7.60;2.30;;;;;;;;;;4911468;29;20488;-66
2023/08/02 14:04:23;;;;;;;2.27;2.13;;;;;;;;;;4912897;28;20448;-66
2023/08/02 14:06:49;;;;;;;10.47;2.57;;;;;;;;;;4912800;28;20487;-66
2023/08/02 14:09:20;;;;;;;23.33;3.23;;;;;;;;;;4911503;28;20888;-66
2023/08/02 14:11:45;;;;;;;11.47;2.13;;;;;;;;;;4912310;28;20978;-66
2023/08/02 14:14:11;;;;;;;2.00;1.90;;;;;;;;;;4910898;28;20468;-66
2023/08/02 14:16:37;;;;;;;9.03;1.83;;;;;;;;;;4901433;28;20194;-67
2023/08/02 14:19:03;;;;;;;2.00;2.00;;;;;;;;;;4894069;28;21007;-66
2023/08/02 14:21:30;;;;;;;1.83;1.70;;;;;;;;;;4903438;28;21039;-67
2023/08/02 14:23:55;;;;;;;1.90;1.80;;;;;;;;;;4912512;29;20540;-66
2023/08/02 14:26:21;;;;;;;2.93;2.53;;;;;;;;;;4912651;28;20496;-66
2023/08/02 14:28:47;;;;;;;2.37;2.17;;;;;;;;;;4912759;28;20440;-66
2023/08/02 14:31:14;;;;;;;1.80;1.80;;;;;;;;;;4912272;28;20453;-66
2023/08/02 14:33:40;;;;;;;2.40;2.30;;;;;;;;;;4912447;28;20483;-67
2023/08/02 14:36:06;;;;;;;1.80;1.80;;;;;;;;;;4912721;28;20518;-66
2023/08/02 14:38:33;;;;;;;2.20;2.07;;;;;;;;;;4912719;29;20913;-66
2023/08/02 14:40:59;;;;;;;1.67;1.67;;;;;;;;;;4912560;29;20185;-66
2023/08/02 14:43:25;;;;;;;1.83;1.83;;;;;;;;;;4912645;28;20433;-66
2023/08/02 14:45:51;;;;;;;4.00;2.33;;;;;;;;;;4910907;28;20437;-67
2023/08/02 14:48:17;;;;;;;1.80;1.80;;;;;;;;;;4912766;29;20436;-66
2023/08/02 14:50:43;;;;;;;2.20;2.00;;;;;;;;;;4912364;28;20441;-67
2023/08/02 14:53:09;;;;;;;15.13;2.90;;;;;;;;;;4911042;28;20242;-66
2023/08/02 14:55:36;;;;;;;4.63;2.10;;;;;;;;;;4912275;28;20448;-68
2023/08/02 14:58:02;;;;;;;2.00;1.80;;;;;;;;;;4911467;28;20215;-66
2023/08/02 15:00:27;;;;;;;2.10;2.00;;;;;;;;;;4911850;29;20883;-66
2023/08/02 15:02:53;;;;;;;2.10;2.00;;;;;;;;;;4912104;28;20511;-66
2023/08/02 15:05:20;;;;;;;5.83;2.33;;;;;;;;;;4912378;28;20424;-66
2023/08/02 15:07:46;;;;;;;1.63;1.63;;;;;;;;;;4912231;28;20433;-66
2023/08/02 15:10:14;;;;;;;7.73;2.30;;;;;;;;;;4912314;29;20428;-66
2023/08/02 15:12:40;;;;;;;9.40;2.00;;;;;;;;;;4912124;28;20429;-66
2023/08/02 15:15:07;;;;;;;2.57;2.53;;;;;;;;;;4911939;28;20439;-67
2023/08/02 15:17:33;;;;;;;2.63;2.63;;;;;;;;;;4913576;28;20631;-66